sensor_id;sensor_type;location;lat;lon;timestamp;temperature;humidity
5415;DHT22;2730;51.512;7.504;2023-05-07T00:02:18;13.80;99.90
5415;DHT22;2730;51.512;7.504;2023-05-07T00:04:44;13.80;99.90
5415;DHT22;2730;51.512;7.504;2023-05-07T00:07:11;13.80;99.90
5415;DHT22;2730;51.512;7.504;2023-05-07T00:09:38;13.80;99.90
5415;DHT22;2730;51.512;7.504;2023-05-07T00:12:05;13.80;99.90
5415;DHT22;2730;51.512;7.504;2023-05-07T00:14:32;13.80;99.90
5415;DHT22;2730;51.512;7.504;2023-05-07T00:17:00;13.80;99.90
5415;DHT22;2730;51.512;7.504;2023-05-07T00:19:27;13.80;99.90
5415;DHT22;2730;51.512;7.504;2023-05-07T00:21:54;13.80;99.90
5415;DHT22;2730;51.512;7.504;2023-05-07T00:24:21;13.80;99.90
5415;DHT22;2730;51.512;7.504;2023-05-07T00:26:48;13.80;99.90
5415;DHT22;2730;51.512;7.504;2023-05-07T00:29:14;13.90;99.90
5415;DHT22;2730;51.512;7.504;2023-05-07T00:31:41;13.80;99.90
5415;DHT22;2730;51.512;7.504;2023-05-07T00:34:09;13.90;99.90
5415;DHT22;2730;51.512;7.504;2023-05-07T00:36:36;13.90;99.90
5415;DHT22;2730;51.512;7.504;2023-05-07T00:39:03;13.80;99.90
5415;DHT22;2730;51.512;7.504;2023-05-07T00:41:30;13.80;99.90
5415;DHT22;2730;51.512;7.504;2023-05-07T00:43:57;13.90;99.90
5415;DHT22;2730;51.512;7.504;2023-05-07T00:46:24;13.90;99.90
5415;DHT22;2730;51.512;7.504;2023-05-07T00:48:51;13.90;99.90
5415;DHT22;2730;51.512;7.504;2023-05-07T00:51:20;13.90;99.90
5415;DHT22;2730;51.512;7.504;2023-05-07T00:53:47;13.90;99.90
5415;DHT22;2730;51.512;7.504;2023-05-07T00:56:14;13.90;99.90
5415;DHT22;2730;51.512;7.504;2023-05-07T00:58:41;13.90;99.90
5415;DHT22;2730;51.512;7.504;2023-05-07T01:01:08;13.90;99.90
5415;DHT22;2730;51.512;7.504;2023-05-07T01:03:35;13.90;99.90
5415;DHT22;2730;51.512;7.504;2023-05-07T01:06:03;13.90;99.90
5415;DHT22;2730;51.512;7.504;2023-05-07T01:08:32;13.90;99.90
5415;DHT22;2730;51.512;7.504;2023-05-07T01:11:00;13.90;99.90
5415;DHT22;2730;51.512;7.504;2023-05-07T01:13:27;13.90;99.90
5415;DHT22;2730;51.512;7.504;2023-05-07T01:15:54;13.90;99.90
5415;DHT22;2730;51.512;7.504;2023-05-07T01:18:21;13.80;99.90
5415;DHT22;2730;51.512;7.504;2023-05-07T01:20:48;13.80;99.90
5415;DHT22;2730;51.512;7.504;2023-05-07T01:23:17;13.80;99.90
5415;DHT22;2730;51.512;7.504;2023-05-07T01:25:51;13.80;99.90
5415;DHT22;2730;51.512;7.504;2023-05-07T01:28:18;13.80;99.90
5415;DHT22;2730;51.512;7.504;2023-05-07T01:30:49;13.80;99.90
5415;DHT22;2730;51.512;7.504;2023-05-07T01:33:18;13.70;99.90
5415;DHT22;2730;51.512;7.504;2023-05-07T01:35:48;13.70;99.90
5415;DHT22;2730;51.512;7.504;2023-05-07T01:38:17;13.60;99.90
5415;DHT22;2730;51.512;7.504;2023-05-07T01:40:45;13.70;99.90
5415;DHT22;2730;51.512;7.504;2023-05-07T01:43:12;13.70;99.90
5415;DHT22;2730;51.512;7.504;2023-05-07T01:45:40;13.70;99.90
5415;DHT22;2730;51.512;7.504;2023-05-07T01:48:09;13.70;99.90
5415;DHT22;2730;51.512;7.504;2023-05-07T01:50:36;13.70;99.90
5415;DHT22;2730;51.512;7.504;2023-05-07T01:53:03;13.70;99.90
5415;DHT22;2730;51.512;7.504;2023-05-07T01:55:31;13.70;99.90
5415;DHT22;2730;51.512;7.504;2023-05-07T01:57:58;13.60;99.90
5415;DHT22;2730;51.512;7.504;2023-05-07T02:00:25;13.60;99.90
5415;DHT22;2730;51.512;7.504;2023-05-07T02:02:52;13.60;99.90
5415;DHT22;2730;51.512;7.504;2023-05-07T02:05:19;13.60;99.90
5415;DHT22;2730;51.512;7.504;2023-05-07T02:07:46;13.70;99.90
5415;DHT22;2730;51.512;7.504;2023-05-07T02:10:13;13.70;99.90
5415;DHT22;2730;51.512;7.504;2023-05-07T02:12:41;13.70;99.90
5415;DHT22;2730;51.512;7.504;2023-05-07T02:15:08;13.60;99.90
5415;DHT22;2730;51.512;7.504;2023-05-07T02:17:39;13.60;99.90
5415;DHT22;2730;51.512;7.504;2023-05-07T02:20:07;13.60;99.90
5415;DHT22;2730;51.512;7.504;2023-05-07T02:22:38;13.60;99.90
5415;DHT22;2730;51.512;7.504;2023-05-07T02:25:05;13.50;99.90
5415;DHT22;2730;51.512;7.504;2023-05-07T02:27:32;13.50;99.90
5415;DHT22;2730;51.512;7.504;2023-05-07T02:30:00;13.40;99.90
5415;DHT22;2730;51.512;7.504;2023-05-07T02:32:27;13.40;99.90
5415;DHT22;2730;51.512;7.504;2023-05-07T02:34:53;13.40;99.90
5415;DHT22;2730;51.512;7.504;2023-05-07T02:37:20;13.40;99.90
5415;DHT22;2730;51.512;7.504;2023-05-07T02:39:47;13.40;99.90
5415;DHT22;2730;51.512;7.504;2023-05-07T02:42:14;13.40;99.90
5415;DHT22;2730;51.512;7.504;2023-05-07T02:44:40;13.40;99.90
5415;DHT22;2730;51.512;7.504;2023-05-07T02:47:08;13.30;99.90
5415;DHT22;2730;51.512;7.504;2023-05-07T02:49:35;13.30;99.90
5415;DHT22;2730;51.512;7.504;2023-05-07T02:52:02;13.30;99.90
5415;DHT22;2730;51.512;7.504;2023-05-07T02:54:29;13.30;99.90
5415;DHT22;2730;51.512;7.504;2023-05-07T02:56:56;13.30;99.90
5415;DHT22;2730;51.512;7.504;2023-05-07T02:59:23;13.30;99.90
5415;DHT22;2730;51.512;7.504;2023-05-07T03:01:51;13.30;99.90
5415;DHT22;2730;51.512;7.504;2023-05-07T03:04:19;13.30;99.90
5415;DHT22;2730;51.512;7.504;2023-05-07T03:06:46;13.30;99.90
5415;DHT22;2730;51.512;7.504;2023-05-07T03:09:13;13.40;99.90
5415;DHT22;2730;51.512;7.504;2023-05-07T03:11:40;13.40;99.90
5415;DHT22;2730;51.512;7.504;2023-05-07T03:14:07;13.40;99.90
5415;DHT22;2730;51.512;7.504;2023-05-07T03:16:33;13.30;99.90
5415;DHT22;2730;51.512;7.504;2023-05-07T03:19:00;13.30;99.90
5415;DHT22;2730;51.512;7.504;2023-05-07T03:21:28;13.30;99.90
5415;DHT22;2730;51.512;7.504;2023-05-07T03:23:56;13.30;99.90
5415;DHT22;2730;51.512;7.504;2023-05-07T03:26:22;13.40;99.90
5415;DHT22;2730;51.512;7.504;2023-05-07T03:28:49;13.40;99.90
5415;DHT22;2730;51.512;7.504;2023-05-07T03:31:16;13.30;99.90
5415;DHT22;2730;51.512;7.504;2023-05-07T03:33:50;13.30;99.90
5415;DHT22;2730;51.512;7.504;2023-05-07T03:36:18;13.30;99.90
5415;DHT22;2730;51.512;7.504;2023-05-07T03:38:47;13.30;99.90
5415;DHT22;2730;51.512;7.504;2023-05-07T03:41:14;13.30;99.90
5415;DHT22;2730;51.512;7.504;2023-05-07T03:43:41;13.40;99.90
5415;DHT22;2730;51.512;7.504;2023-05-07T03:46:08;13.40;99.90
5415;DHT22;2730;51.512;7.504;2023-05-07T03:48:35;13.40;99.90
5415;DHT22;2730;51.512;7.504;2023-05-07T03:51:02;13.30;99.90
5415;DHT22;2730;51.512;7.504;2023-05-07T03:53:28;13.30;99.90
5415;DHT22;2730;51.512;7.504;2023-05-07T03:55:56;13.30;99.90
5415;DHT22;2730;51.512;7.504;2023-05-07T03:58:23;13.20;99.90
5415;DHT22;2730;51.512;7.504;2023-05-07T04:00:50;13.30;99.90
5415;DHT22;2730;51.512;7.504;2023-05-07T04:03:17;13.40;99.90
5415;DHT22;2730;51.512;7.504;2023-05-07T04:05:43;13.40;99.90
5415;DHT22;2730;51.512;7.504;2023-05-07T04:08:10;13.30;99.90
5415;DHT22;2730;51.512;7.504;2023-05-07T04:10:37;13.30;99.90
5415;DHT22;2730;51.512;7.504;2023-05-07T04:13:05;13.30;99.90
5415;DHT22;2730;51.512;7.504;2023-05-07T04:15:32;13.30;99.90
5415;DHT22;2730;51.512;7.504;2023-05-07T04:17:58;13.30;99.90
5415;DHT22;2730;51.512;7.504;2023-05-07T04:20:25;13.30;99.90
5415;DHT22;2730;51.512;7.504;2023-05-07T04:22:52;13.30;99.90
5415;DHT22;2730;51.512;7.504;2023-05-07T04:25:19;13.30;99.90
5415;DHT22;2730;51.512;7.504;2023-05-07T04:27:45;13.30;99.90
5415;DHT22;2730;51.512;7.504;2023-05-07T04:30:14;13.40;99.90
5415;DHT22;2730;51.512;7.504;2023-05-07T04:32:41;13.30;99.90
5415;DHT22;2730;51.512;7.504;2023-05-07T04:35:10;13.30;99.90
5415;DHT22;2730;51.512;7.504;2023-05-07T04:37:36;13.30;99.90
5415;DHT22;2730;51.512;7.504;2023-05-07T04:40:04;13.40;99.90
5415;DHT22;2730;51.512;7.504;2023-05-07T04:42:31;13.40;99.90
5415;DHT22;2730;51.512;7.504;2023-05-07T04:44:57;13.40;99.90
5415;DHT22;2730;51.512;7.504;2023-05-07T04:47:25;13.50;99.90
5415;DHT22;2730;51.512;7.504;2023-05-07T04:49:52;13.50;99.90
5415;DHT22;2730;51.512;7.504;2023-05-07T04:52:19;13.50;99.90
5415;DHT22;2730;51.512;7.504;2023-05-07T04:54:45;13.60;99.90
5415;DHT22;2730;51.512;7.504;2023-05-07T04:57:12;13.70;99.90
5415;DHT22;2730;51.512;7.504;2023-05-07T04:59:39;13.80;99.90
5415;DHT22;2730;51.512;7.504;2023-05-07T05:02:06;13.90;99.90
5415;DHT22;2730;51.512;7.504;2023-05-07T05:04:34;13.90;99.90
5415;DHT22;2730;51.512;7.504;2023-05-07T05:07:01;14.10;99.90
5415;DHT22;2730;51.512;7.504;2023-05-07T05:09:29;14.10;99.90
5415;DHT22;2730;51.512;7.504;2023-05-07T05:11:55;14.30;99.90
5415;DHT22;2730;51.512;7.504;2023-05-07T05:14:22;14.40;99.90
5415;DHT22;2730;51.512;7.504;2023-05-07T05:16:49;14.40;99.90
5415;DHT22;2730;51.512;7.504;2023-05-07T05:19:16;14.50;99.90
5415;DHT22;2730;51.512;7.504;2023-05-07T05:21:44;14.60;99.90
5415;DHT22;2730;51.512;7.504;2023-05-07T05:24:11;14.80;99.90
5415;DHT22;2730;51.512;7.504;2023-05-07T05:26:37;14.90;99.90
5415;DHT22;2730;51.512;7.504;2023-05-07T05:29:04;14.80;99.90
5415;DHT22;2730;51.512;7.504;2023-05-07T05:31:31;14.80;99.90
5415;DHT22;2730;51.512;7.504;2023-05-07T05:33:59;14.80;99.90
5415;DHT22;2730;51.512;7.504;2023-05-07T05:36:25;14.80;99.90
5415;DHT22;2730;51.512;7.504;2023-05-07T05:38:53;14.70;99.90
5415;DHT22;2730;51.512;7.504;2023-05-07T05:41:20;14.70;99.90
5415;DHT22;2730;51.512;7.504;2023-05-07T05:43:47;14.90;99.90
5415;DHT22;2730;51.512;7.504;2023-05-07T05:46:14;15.00;99.90
5415;DHT22;2730;51.512;7.504;2023-05-07T05:48:41;15.20;99.90
5415;DHT22;2730;51.512;7.504;2023-05-07T05:51:08;15.20;99.90
5415;DHT22;2730;51.512;7.504;2023-05-07T05:53:34;15.30;99.90
5415;DHT22;2730;51.512;7.504;2023-05-07T05:56:04;15.50;99.90
5415;DHT22;2730;51.512;7.504;2023-05-07T05:58:31;15.60;99.90
5415;DHT22;2730;51.512;7.504;2023-05-07T06:00:58;15.60;99.90
5415;DHT22;2730;51.512;7.504;2023-05-07T06:03:24;15.70;99.90
5415;DHT22;2730;51.512;7.504;2023-05-07T06:05:51;15.80;99.90
5415;DHT22;2730;51.512;7.504;2023-05-07T06:08:18;16.00;99.90
5415;DHT22;2730;51.512;7.504;2023-05-07T06:10:45;16.20;99.90
5415;DHT22;2730;51.512;7.504;2023-05-07T06:13:13;16.30;99.90
5415;DHT22;2730;51.512;7.504;2023-05-07T06:15:40;16.30;99.90
5415;DHT22;2730;51.512;7.504;2023-05-07T06:18:06;16.60;99.90
5415;DHT22;2730;51.512;7.504;2023-05-07T06:20:33;17.20;99.90
5415;DHT22;2730;51.512;7.504;2023-05-07T06:23:00;18.00;99.90
5415;DHT22;2730;51.512;7.504;2023-05-07T06:25:27;19.00;99.90
5415;DHT22;2730;51.512;7.504;2023-05-07T06:27:54;19.80;99.90
5415;DHT22;2730;51.512;7.504;2023-05-07T06:30:22;19.60;99.90
5415;DHT22;2730;51.512;7.504;2023-05-07T06:32:49;19.40;99.90
5415;DHT22;2730;51.512;7.504;2023-05-07T06:35:15;19.20;99.90
5415;DHT22;2730;51.512;7.504;2023-05-07T06:37:42;19.10;99.90
5415;DHT22;2730;51.512;7.504;2023-05-07T06:40:10;18.90;99.90
5415;DHT22;2730;51.512;7.504;2023-05-07T06:42:37;18.40;99.90
5415;DHT22;2730;51.512;7.504;2023-05-07T06:45:05;18.30;99.90
5415;DHT22;2730;51.512;7.504;2023-05-07T06:47:33;18.20;99.90
5415;DHT22;2730;51.512;7.504;2023-05-07T06:50:00;18.10;99.90
5415;DHT22;2730;51.512;7.504;2023-05-07T06:52:27;18.00;99.90
5415;DHT22;2730;51.512;7.504;2023-05-07T06:54:53;17.90;99.90
5415;DHT22;2730;51.512;7.504;2023-05-07T06:57:20;17.70;99.90
5415;DHT22;2730;51.512;7.504;2023-05-07T06:59:47;17.60;99.90
5415;DHT22;2730;51.512;7.504;2023-05-07T07:02:14;17.40;99.90
5415;DHT22;2730;51.512;7.504;2023-05-07T07:04:42;17.50;99.90
5415;DHT22;2730;51.512;7.504;2023-05-07T07:07:09;17.40;99.90
5415;DHT22;2730;51.512;7.504;2023-05-07T07:09:35;17.30;99.90
5415;DHT22;2730;51.512;7.504;2023-05-07T07:12:02;17.20;99.90
5415;DHT22;2730;51.512;7.504;2023-05-07T07:14:29;17.30;99.90
5415;DHT22;2730;51.512;7.504;2023-05-07T07:16:56;17.40;99.90
5415;DHT22;2730;51.512;7.504;2023-05-07T07:19:23;17.50;99.90
5415;DHT22;2730;51.512;7.504;2023-05-07T07:21:52;17.80;99.90
5415;DHT22;2730;51.512;7.504;2023-05-07T07:24:19;18.00;99.90
5415;DHT22;2730;51.512;7.504;2023-05-07T07:26:46;18.30;99.90
5415;DHT22;2730;51.512;7.504;2023-05-07T07:29:13;18.00;99.90
5415;DHT22;2730;51.512;7.504;2023-05-07T07:31:40;18.00;99.90
5415;DHT22;2730;51.512;7.504;2023-05-07T07:34:07;18.10;99.90
5415;DHT22;2730;51.512;7.504;2023-05-07T07:36:33;18.00;99.90
5415;DHT22;2730;51.512;7.504;2023-05-07T07:39:02;17.90;99.90
5415;DHT22;2730;51.512;7.504;2023-05-07T07:41:28;17.80;99.90
5415;DHT22;2730;51.512;7.504;2023-05-07T07:43:55;18.00;99.90
5415;DHT22;2730;51.512;7.504;2023-05-07T07:46:22;18.20;99.90
5415;DHT22;2730;51.512;7.504;2023-05-07T07:48:48;18.30;99.90
5415;DHT22;2730;51.512;7.504;2023-05-07T07:51:15;18.30;99.90
5415;DHT22;2730;51.512;7.504;2023-05-07T07:53:42;18.60;99.90
5415;DHT22;2730;51.512;7.504;2023-05-07T07:56:10;19.30;99.90
5415;DHT22;2730;51.512;7.504;2023-05-07T07:58:37;19.70;99.90
5415;DHT22;2730;51.512;7.504;2023-05-07T08:01:04;20.40;99.90
5415;DHT22;2730;51.512;7.504;2023-05-07T08:03:31;20.60;99.90
5415;DHT22;2730;51.512;7.504;2023-05-07T08:05:58;21.10;99.90
5415;DHT22;2730;51.512;7.504;2023-05-07T08:08:25;21.00;99.90
5415;DHT22;2730;51.512;7.504;2023-05-07T08:10:52;20.80;99.90
5415;DHT22;2730;51.512;7.504;2023-05-07T08:13:20;20.50;99.90
5415;DHT22;2730;51.512;7.504;2023-05-07T08:15:47;20.40;99.90
5415;DHT22;2730;51.512;7.504;2023-05-07T08:18:13;20.10;99.90
5415;DHT22;2730;51.512;7.504;2023-05-07T08:20:40;19.90;99.90
5415;DHT22;2730;51.512;7.504;2023-05-07T08:23:07;19.70;99.90
5415;DHT22;2730;51.512;7.504;2023-05-07T08:25:34;19.30;99.90
5415;DHT22;2730;51.512;7.504;2023-05-07T08:28:01;19.10;99.90
5415;DHT22;2730;51.512;7.504;2023-05-07T08:30:30;18.90;99.90
5415;DHT22;2730;51.512;7.504;2023-05-07T08:32:57;18.90;99.90
5415;DHT22;2730;51.512;7.504;2023-05-07T08:35:23;19.30;99.90
5415;DHT22;2730;51.512;7.504;2023-05-07T08:37:51;19.30;99.90
5415;DHT22;2730;51.512;7.504;2023-05-07T08:40:18;19.30;99.90
5415;DHT22;2730;51.512;7.504;2023-05-07T08:42:48;19.40;99.90
5415;DHT22;2730;51.512;7.504;2023-05-07T08:45:15;19.60;99.90
5415;DHT22;2730;51.512;7.504;2023-05-07T08:47:47;19.90;99.90
5415;DHT22;2730;51.512;7.504;2023-05-07T08:50:16;20.50;99.90
5415;DHT22;2730;51.512;7.504;2023-05-07T08:52:43;20.30;99.90
5415;DHT22;2730;51.512;7.504;2023-05-07T08:55:09;20.10;99.90
5415;DHT22;2730;51.512;7.504;2023-05-07T08:57:36;19.90;99.90
5415;DHT22;2730;51.512;7.504;2023-05-07T09:00:04;19.80;99.90
5415;DHT22;2730;51.512;7.504;2023-05-07T09:02:32;19.80;99.90
5415;DHT22;2730;51.512;7.504;2023-05-07T09:05:00;20.30;99.90
5415;DHT22;2730;51.512;7.504;2023-05-07T09:07:27;20.30;99.90
5415;DHT22;2730;51.512;7.504;2023-05-07T09:09:54;20.70;99.90
5415;DHT22;2730;51.512;7.504;2023-05-07T09:12:22;20.90;99.90
5415;DHT22;2730;51.512;7.504;2023-05-07T09:14:49;21.10;99.90
5415;DHT22;2730;51.512;7.504;2023-05-07T09:17:16;21.50;99.90
5415;DHT22;2730;51.512;7.504;2023-05-07T09:19:44;22.10;99.90
5415;DHT22;2730;51.512;7.504;2023-05-07T09:22:12;22.80;99.90
5415;DHT22;2730;51.512;7.504;2023-05-07T09:24:39;23.40;99.90
5415;DHT22;2730;51.512;7.504;2023-05-07T09:27:07;23.30;99.90
5415;DHT22;2730;51.512;7.504;2023-05-07T09:29:35;23.10;99.90
5415;DHT22;2730;51.512;7.504;2023-05-07T09:32:02;22.80;99.90
5415;DHT22;2730;51.512;7.504;2023-05-07T09:34:29;22.40;99.90
5415;DHT22;2730;51.512;7.504;2023-05-07T09:36:56;21.90;99.90
5415;DHT22;2730;51.512;7.504;2023-05-07T09:39:26;21.20;99.90
5415;DHT22;2730;51.512;7.504;2023-05-07T09:41:53;21.20;99.90
5415;DHT22;2730;51.512;7.504;2023-05-07T09:44:20;21.70;99.90
5415;DHT22;2730;51.512;7.504;2023-05-07T09:46:53;22.10;99.90
5415;DHT22;2730;51.512;7.504;2023-05-07T09:49:22;22.60;99.90
5415;DHT22;2730;51.512;7.504;2023-05-07T09:51:50;23.00;99.90
5415;DHT22;2730;51.512;7.504;2023-05-07T09:54:17;23.20;99.90
5415;DHT22;2730;51.512;7.504;2023-05-07T09:56:46;22.90;99.90
5415;DHT22;2730;51.512;7.504;2023-05-07T09:59:16;22.60;99.90
5415;DHT22;2730;51.512;7.504;2023-05-07T10:01:44;23.00;99.90
5415;DHT22;2730;51.512;7.504;2023-05-07T10:04:11;23.40;99.90
5415;DHT22;2730;51.512;7.504;2023-05-07T10:06:38;23.80;99.90
5415;DHT22;2730;51.512;7.504;2023-05-07T10:09:07;24.00;99.90
5415;DHT22;2730;51.512;7.504;2023-05-07T10:11:35;23.90;99.90
5415;DHT22;2730;51.512;7.504;2023-05-07T10:14:04;23.50;99.90
5415;DHT22;2730;51.512;7.504;2023-05-07T10:16:35;23.50;99.90
5415;DHT22;2730;51.512;7.504;2023-05-07T10:19:02;23.70;99.90
5415;DHT22;2730;51.512;7.504;2023-05-07T10:21:30;23.60;99.90
5415;DHT22;2730;51.512;7.504;2023-05-07T10:23:59;23.60;99.90
5415;DHT22;2730;51.512;7.504;2023-05-07T10:26:29;23.90;99.50
5415;DHT22;2730;51.512;7.504;2023-05-07T10:29:01;23.90;98.20
5415;DHT22;2730;51.512;7.504;2023-05-07T10:34:25;25.10;95.10
5415;DHT22;2730;51.512;7.504;2023-05-07T10:36:54;25.80;93.70
5415;DHT22;2730;51.512;7.504;2023-05-07T10:39:21;25.90;93.90
5415;DHT22;2730;51.512;7.504;2023-05-07T10:41:48;25.90;93.40
5415;DHT22;2730;51.512;7.504;2023-05-07T10:44:25;25.70;94.30
5415;DHT22;2730;51.512;7.504;2023-05-07T10:47:05;25.30;93.70
5415;DHT22;2730;51.512;7.504;2023-05-07T10:49:34;24.30;95.30
5415;DHT22;2730;51.512;7.504;2023-05-07T10:52:11;23.80;96.60
5415;DHT22;2730;51.512;7.504;2023-05-07T10:54:40;23.00;98.30
5415;DHT22;2730;51.512;7.504;2023-05-07T10:57:33;22.90;99.60
5415;DHT22;2730;51.512;7.504;2023-05-07T11:00:02;23.00;99.90
5415;DHT22;2730;51.512;7.504;2023-05-07T11:03:06;23.00;99.90
5415;DHT22;2730;51.512;7.504;2023-05-07T11:05:34;22.80;99.20
5415;DHT22;2730;51.512;7.504;2023-05-07T11:08:02;22.40;99.90
5415;DHT22;2730;51.512;7.504;2023-05-07T11:10:51;22.30;99.90
5415;DHT22;2730;51.512;7.504;2023-05-07T11:13:42;22.50;99.30
5415;DHT22;2730;51.512;7.504;2023-05-07T11:16:17;22.30;99.90
5415;DHT22;2730;51.512;7.504;2023-05-07T11:18:49;22.10;99.90
5415;DHT22;2730;51.512;7.504;2023-05-07T11:21:35;22.30;99.90
5415;DHT22;2730;51.512;7.504;2023-05-07T11:24:05;22.50;99.90
5415;DHT22;2730;51.512;7.504;2023-05-07T11:26:43;22.40;99.90
5415;DHT22;2730;51.512;7.504;2023-05-07T11:29:14;22.10;99.90
5415;DHT22;2730;51.512;7.504;2023-05-07T11:31:41;21.90;99.90
5415;DHT22;2730;51.512;7.504;2023-05-07T11:34:11;22.00;99.90
5415;DHT22;2730;51.512;7.504;2023-05-07T11:36:42;21.80;99.90
5415;DHT22;2730;51.512;7.504;2023-05-07T11:39:24;21.70;99.90
5415;DHT22;2730;51.512;7.504;2023-05-07T11:41:51;21.60;99.90
5415;DHT22;2730;51.512;7.504;2023-05-07T11:44:18;21.50;99.90
5415;DHT22;2730;51.512;7.504;2023-05-07T11:46:45;21.50;99.90
5415;DHT22;2730;51.512;7.504;2023-05-07T11:49:13;21.60;99.90
5415;DHT22;2730;51.512;7.504;2023-05-07T11:51:40;21.70;99.90
5415;DHT22;2730;51.512;7.504;2023-05-07T11:54:08;21.90;99.90
5415;DHT22;2730;51.512;7.504;2023-05-07T11:56:37;22.10;99.90
5415;DHT22;2730;51.512;7.504;2023-05-07T11:59:04;22.20;99.90
5415;DHT22;2730;51.512;7.504;2023-05-07T12:01:30;22.00;99.90
5415;DHT22;2730;51.512;7.504;2023-05-07T12:03:57;22.20;99.90
5415;DHT22;2730;51.512;7.504;2023-05-07T12:06:25;22.30;99.90
5415;DHT22;2730;51.512;7.504;2023-05-07T12:08:53;22.20;99.90
5415;DHT22;2730;51.512;7.504;2023-05-07T12:11:23;22.10;99.90
5415;DHT22;2730;51.512;7.504;2023-05-07T12:13:50;22.00;99.90
5415;DHT22;2730;51.512;7.504;2023-05-07T12:16:17;22.20;99.90
5415;DHT22;2730;51.512;7.504;2023-05-07T12:18:44;22.30;99.90
5415;DHT22;2730;51.512;7.504;2023-05-07T12:21:11;22.40;99.90
5415;DHT22;2730;51.512;7.504;2023-05-07T12:23:39;22.50;99.90
5415;DHT22;2730;51.512;7.504;2023-05-07T12:26:06;22.30;99.90
5415;DHT22;2730;51.512;7.504;2023-05-07T12:28:38;22.50;99.90
5415;DHT22;2730;51.512;7.504;2023-05-07T12:31:05;22.40;99.90
5415;DHT22;2730;51.512;7.504;2023-05-07T12:33:33;21.90;99.90
5415;DHT22;2730;51.512;7.504;2023-05-07T12:36:04;21.70;99.90
5415;DHT22;2730;51.512;7.504;2023-05-07T12:38:35;21.70;99.90
5415;DHT22;2730;51.512;7.504;2023-05-07T12:41:06;21.40;99.90
5415;DHT22;2730;51.512;7.504;2023-05-07T12:43:33;21.40;99.90
5415;DHT22;2730;51.512;7.504;2023-05-07T12:46:02;21.40;99.90
5415;DHT22;2730;51.512;7.504;2023-05-07T12:48:30;21.20;99.90
5415;DHT22;2730;51.512;7.504;2023-05-07T12:50:58;21.20;99.90
5415;DHT22;2730;51.512;7.504;2023-05-07T12:53:27;21.20;99.90
5415;DHT22;2730;51.512;7.504;2023-05-07T12:55:55;21.30;99.90
5415;DHT22;2730;51.512;7.504;2023-05-07T12:58:25;21.20;99.90
5415;DHT22;2730;51.512;7.504;2023-05-07T13:00:53;21.30;99.90
5415;DHT22;2730;51.512;7.504;2023-05-07T13:03:24;21.40;99.90
5415;DHT22;2730;51.512;7.504;2023-05-07T13:05:52;21.40;99.90
5415;DHT22;2730;51.512;7.504;2023-05-07T13:08:27;21.40;99.90
5415;DHT22;2730;51.512;7.504;2023-05-07T13:10:54;21.40;99.90
5415;DHT22;2730;51.512;7.504;2023-05-07T13:13:21;21.30;99.90
5415;DHT22;2730;51.512;7.504;2023-05-07T13:15:49;21.10;99.90
5415;DHT22;2730;51.512;7.504;2023-05-07T13:18:16;21.10;99.90
5415;DHT22;2730;51.512;7.504;2023-05-07T13:20:43;20.90;99.90
5415;DHT22;2730;51.512;7.504;2023-05-07T13:23:10;21.00;99.90
5415;DHT22;2730;51.512;7.504;2023-05-07T13:25:36;20.90;99.90
5415;DHT22;2730;51.512;7.504;2023-05-07T13:28:03;20.80;99.90
5415;DHT22;2730;51.512;7.504;2023-05-07T13:30:30;20.80;99.90
5415;DHT22;2730;51.512;7.504;2023-05-07T13:32:58;20.70;99.90
5415;DHT22;2730;51.512;7.504;2023-05-07T13:35:25;20.70;99.90
5415;DHT22;2730;51.512;7.504;2023-05-07T13:37:52;20.60;99.90
5415;DHT22;2730;51.512;7.504;2023-05-07T13:40:20;20.60;99.90
5415;DHT22;2730;51.512;7.504;2023-05-07T13:42:47;20.50;99.90
5415;DHT22;2730;51.512;7.504;2023-05-07T13:45:13;20.40;99.90
5415;DHT22;2730;51.512;7.504;2023-05-07T13:47:40;20.40;99.90
5415;DHT22;2730;51.512;7.504;2023-05-07T13:50:10;20.30;99.90
5415;DHT22;2730;51.512;7.504;2023-05-07T13:52:39;20.50;99.90
5415;DHT22;2730;51.512;7.504;2023-05-07T13:55:07;20.50;99.90
5415;DHT22;2730;51.512;7.504;2023-05-07T13:57:33;20.40;99.90
5415;DHT22;2730;51.512;7.504;2023-05-07T14:00:00;20.40;99.90
5415;DHT22;2730;51.512;7.504;2023-05-07T14:02:27;20.40;99.90
5415;DHT22;2730;51.512;7.504;2023-05-07T14:04:54;20.40;99.90
5415;DHT22;2730;51.512;7.504;2023-05-07T14:07:22;20.50;99.90
5415;DHT22;2730;51.512;7.504;2023-05-07T14:09:49;20.50;99.90
5415;DHT22;2730;51.512;7.504;2023-05-07T14:12:15;20.50;99.90
5415;DHT22;2730;51.512;7.504;2023-05-07T14:14:42;20.50;99.90
5415;DHT22;2730;51.512;7.504;2023-05-07T14:17:09;20.70;99.90
5415;DHT22;2730;51.512;7.504;2023-05-07T14:19:36;20.70;99.90
5415;DHT22;2730;51.512;7.504;2023-05-07T14:22:02;20.70;99.90
5415;DHT22;2730;51.512;7.504;2023-05-07T14:24:30;20.80;99.90
5415;DHT22;2730;51.512;7.504;2023-05-07T14:26:57;20.90;99.90
5415;DHT22;2730;51.512;7.504;2023-05-07T14:29:24;20.90;99.90
5415;DHT22;2730;51.512;7.504;2023-05-07T14:31:51;20.90;99.90
5415;DHT22;2730;51.512;7.504;2023-05-07T14:34:17;20.80;99.90
5415;DHT22;2730;51.512;7.504;2023-05-07T14:36:44;20.90;99.90
5415;DHT22;2730;51.512;7.504;2023-05-07T14:39:11;20.80;99.90
5415;DHT22;2730;51.512;7.504;2023-05-07T14:41:39;20.80;99.90
5415;DHT22;2730;51.512;7.504;2023-05-07T14:44:06;20.90;99.90
5415;DHT22;2730;51.512;7.504;2023-05-07T14:46:33;20.80;99.90
5415;DHT22;2730;51.512;7.504;2023-05-07T14:49:01;20.70;99.90
5415;DHT22;2730;51.512;7.504;2023-05-07T14:51:28;20.50;99.90
5415;DHT22;2730;51.512;7.504;2023-05-07T14:53:56;20.50;99.90
5415;DHT22;2730;51.512;7.504;2023-05-07T14:56:22;20.40;99.90
5415;DHT22;2730;51.512;7.504;2023-05-07T14:58:50;20.40;99.90
5415;DHT22;2730;51.512;7.504;2023-05-07T15:01:17;20.30;99.90
5415;DHT22;2730;51.512;7.504;2023-05-07T15:03:44;20.30;99.90
5415;DHT22;2730;51.512;7.504;2023-05-07T15:06:11;20.40;99.90
5415;DHT22;2730;51.512;7.504;2023-05-07T15:08:38;20.30;99.90
5415;DHT22;2730;51.512;7.504;2023-05-07T15:11:04;20.40;99.90
5415;DHT22;2730;51.512;7.504;2023-05-07T15:13:31;20.20;99.90
5415;DHT22;2730;51.512;7.504;2023-05-07T15:15:59;20.00;99.90
5415;DHT22;2730;51.512;7.504;2023-05-07T15:18:26;19.90;99.90
5415;DHT22;2730;51.512;7.504;2023-05-07T15:20:53;19.70;99.90
5415;DHT22;2730;51.512;7.504;2023-05-07T15:23:20;19.60;99.90
5415;DHT22;2730;51.512;7.504;2023-05-07T15:25:46;19.50;99.90
5415;DHT22;2730;51.512;7.504;2023-05-07T15:28:13;19.30;99.90
5415;DHT22;2730;51.512;7.504;2023-05-07T15:30:40;19.30;99.90
5415;DHT22;2730;51.512;7.504;2023-05-07T15:33:08;19.40;99.90
5415;DHT22;2730;51.512;7.504;2023-05-07T15:35:35;19.40;99.90
5415;DHT22;2730;51.512;7.504;2023-05-07T15:38:02;19.30;99.90
5415;DHT22;2730;51.512;7.504;2023-05-07T15:40:29;19.30;99.90
5415;DHT22;2730;51.512;7.504;2023-05-07T15:42:57;19.30;99.90
5415;DHT22;2730;51.512;7.504;2023-05-07T15:45:24;19.30;99.90
5415;DHT22;2730;51.512;7.504;2023-05-07T15:47:50;19.20;99.90
5415;DHT22;2730;51.512;7.504;2023-05-07T15:50:19;19.20;99.90
5415;DHT22;2730;51.512;7.504;2023-05-07T15:52:46;19.10;99.90
5415;DHT22;2730;51.512;7.504;2023-05-07T15:55:12;18.90;99.90
5415;DHT22;2730;51.512;7.504;2023-05-07T15:57:40;18.90;99.90
5415;DHT22;2730;51.512;7.504;2023-05-07T16:00:07;18.90;99.90
5415;DHT22;2730;51.512;7.504;2023-05-07T16:02:37;18.80;99.90
5415;DHT22;2730;51.512;7.504;2023-05-07T16:05:05;18.90;99.90
5415;DHT22;2730;51.512;7.504;2023-05-07T16:07:34;19.00;99.90
5415;DHT22;2730;51.512;7.504;2023-05-07T16:10:02;19.00;99.90